createdAt,value
2023-03-02T00:01:44.888Z,102314.97
2023-03-02T00:04:28.009Z,102305.28
2023-03-02T00:07:08.014Z,102312.34
2023-03-02T00:09:34.948Z,102299.88
2023-03-02T00:12:01.612Z,102305.97
2023-03-02T00:14:28.156Z,102313.94
2023-03-02T00:16:54.703Z,102305.13
2023-03-02T00:19:21.654Z,102302.47
2023-03-02T00:21:48.245Z,102306.84
2023-03-02T00:24:15.793Z,102305.91
2023-03-02T00:26:42.568Z,102301.53
2023-03-02T00:29:09.263Z,102301.56
2023-03-02T00:31:35.913Z,102302.41
2023-03-02T00:34:02.489Z,102304.97
2023-03-02T00:36:29.066Z,102305.13
2023-03-02T00:38:57.448Z,102304.16
2023-03-02T00:41:24.120Z,102300.59
2023-03-02T00:43:50.902Z,102291.66
2023-03-02T00:46:20.179Z,102296.09
2023-03-02T00:48:46.856Z,102295.97
2023-03-02T00:51:13.956Z,102299.59
2023-03-02T00:53:40.515Z,102302.16
2023-03-02T00:56:08.161Z,102301.34
2023-03-02T00:58:37.791Z,102289.72
2023-03-02T01:01:09.866Z,102293.22
2023-03-02T01:03:39.063Z,102300.91
2023-03-02T01:06:06.180Z,102294.72
2023-03-02T01:08:32.796Z,102290.28
2023-03-02T01:11:01.513Z,102292.09
2023-03-02T01:13:28.682Z,102293.84
2023-03-02T01:16:02.973Z,102290.22
2023-03-02T01:18:29.899Z,102274.09
2023-03-02T01:21:07.722Z,102291.97
2023-03-02T01:23:34.679Z,102292.78
2023-03-02T01:26:01.343Z,102286.38
2023-03-02T01:28:28.194Z,102296.81
2023-03-02T01:30:54.786Z,102287.13
2023-03-02T01:33:21.771Z,102288.81
2023-03-02T01:35:48.855Z,102278.31
2023-03-02T01:38:16.001Z,102272.97
2023-03-02T01:40:43.740Z,102278.16
2023-03-02T01:43:14.485Z,102275.38
2023-03-02T01:45:45.758Z,102276.13
2023-03-02T01:48:17.201Z,102269.06
2023-03-02T01:50:45.305Z,102271.75
2023-03-02T01:53:13.526Z,102264.69
2023-03-02T01:55:40.478Z,102267.31
2023-03-02T01:58:07.581Z,102262.91
2023-03-02T02:00:37.598Z,102262.97
2023-03-02T02:03:21.156Z,102249.91
2023-03-02T02:06:06.614Z,102245.47
2023-03-02T02:08:33.887Z,102255.34
2023-03-02T02:11:00.933Z,102243.06
2023-03-02T02:13:27.830Z,102246.59
2023-03-02T02:15:54.463Z,102253.53
2023-03-02T02:18:21.062Z,102243.91
2023-03-02T02:20:49.258Z,102240.41
2023-03-02T02:23:27.372Z,102248.09
2023-03-02T02:25:55.381Z,102243.72
2023-03-02T02:28:26.507Z,102241.84
2023-03-02T02:31:07.697Z,102242.72
2023-03-02T02:33:35.445Z,102239.09
2023-03-02T02:36:06.641Z,102243.47
2023-03-02T02:38:34.885Z,102236.41
2023-03-02T02:41:03.900Z,102236.19
2023-03-02T02:43:33.845Z,102240.59
2023-03-02T02:46:00.916Z,102237.34
2023-03-02T02:48:31.141Z,102236.41
2023-03-02T02:51:02.944Z,102235.59
2023-03-02T02:53:44.230Z,102243.41
2023-03-02T02:56:11.682Z,102239.78
2023-03-02T02:58:44.754Z,102250.38
2023-03-02T03:01:16.047Z,102242.41
2023-03-02T03:03:46.559Z,102241.63
2023-03-02T03:06:18.231Z,102229.53
2023-03-02T03:08:52.135Z,102230.28
2023-03-02T03:11:30.591Z,102225.78
2023-03-02T03:14:10.626Z,102227.53
2023-03-02T03:16:38.901Z,102229.34
2023-03-02T03:19:27.448Z,102234.66
2023-03-02T03:21:56.535Z,102237.09
2023-03-02T03:24:26.291Z,102239.63
2023-03-02T03:26:56.428Z,102243.88
2023-03-02T03:29:25.365Z,102236.03
2023-03-02T03:31:55.653Z,102240.38
2023-03-02T03:34:23.389Z,102231.63
2023-03-02T03:36:50.101Z,102234.13
2023-03-02T03:39:17.507Z,102225.25
2023-03-02T03:41:44.623Z,102219.88
2023-03-02T03:44:12.051Z,102224.34
2023-03-02T03:46:41.174Z,102216.44
2023-03-02T03:49:08.018Z,102223.38
2023-03-02T03:51:35.578Z,102226.81
2023-03-02T03:54:05.717Z,102223.44
2023-03-02T03:56:40.184Z,102234.06
2023-03-02T03:59:08.876Z,102235.81
2023-03-02T04:01:44.088Z,102234.00
2023-03-02T04:04:14.265Z,102227.88
2023-03-02T04:06:41.020Z,102224.25
2023-03-02T04:09:08.084Z,102225.25
2023-03-02T04:11:38.756Z,102230.44
2023-03-02T04:14:06.115Z,102223.19
2023-03-02T04:16:33.514Z,102221.31
2023-03-02T04:19:01.234Z,102223.97
2023-03-02T04:21:28.334Z,102224.09
2023-03-02T04:23:55.760Z,102224.94
2023-03-02T04:26:23.204Z,102223.94
2023-03-02T04:28:51.012Z,102223.78
2023-03-02T04:31:18.624Z,102218.47
2023-03-02T04:33:45.385Z,102217.66
2023-03-02T04:36:12.530Z,102222.19
2023-03-02T04:38:39.102Z,102225.66
2023-03-02T04:41:05.935Z,102224.81
2023-03-02T04:43:32.579Z,102229.91
2023-03-02T04:45:59.257Z,102232.53
2023-03-02T04:48:26.091Z,102235.81
2023-03-02T04:50:52.678Z,102233.09
2023-03-02T04:53:19.288Z,102233.06
2023-03-02T04:55:45.902Z,102237.69
2023-03-02T04:58:12.481Z,102240.38
2023-03-02T05:00:39.134Z,102237.63
2023-03-02T05:03:06.366Z,102217.94
2023-03-02T05:05:33.331Z,102228.41
2023-03-02T05:08:00.156Z,102228.38
2023-03-02T05:10:27.863Z,102219.47
2023-03-02T05:13:05.212Z,102221.19
2023-03-02T05:15:35.105Z,102214.16
2023-03-02T05:18:02.240Z,102217.69
2023-03-02T05:20:30.432Z,102226.38
2023-03-02T05:23:00.688Z,102225.50
2023-03-02T05:25:28.772Z,102223.75
2023-03-02T05:27:55.751Z,102228.13
2023-03-02T05:30:22.687Z,102231.56
2023-03-02T05:32:53.010Z,102228.84
2023-03-02T05:35:21.337Z,102235.06
2023-03-02T05:37:48.018Z,102229.66
2023-03-02T05:40:18.871Z,102226.22
2023-03-02T05:42:45.824Z,102231.47
2023-03-02T05:45:22.948Z,102227.94
2023-03-02T05:47:49.723Z,102226.09
2023-03-02T05:50:16.803Z,102237.66
2023-03-02T05:52:45.428Z,102235.84
2023-03-02T05:55:13.834Z,102230.56
2023-03-02T05:57:40.773Z,102225.31
2023-03-02T06:00:10.221Z,102226.09
2023-03-02T06:02:40.115Z,102220.81
2023-03-02T06:05:10.999Z,102223.41
2023-03-02T06:07:37.570Z,102229.56
2023-03-02T06:10:05.859Z,102230.41
2023-03-02T06:12:32.539Z,102232.41
2023-03-02T06:14:59.534Z,102227.94
2023-03-02T06:17:26.573Z,102234.16
2023-03-02T06:19:53.167Z,102235.91
2023-03-02T06:22:19.751Z,102241.16
2023-03-02T06:24:46.392Z,102239.47
2023-03-02T06:27:13.642Z,102245.59
2023-03-02T06:29:40.293Z,102237.00
2023-03-02T06:32:07.281Z,102242.31
2023-03-02T06:34:35.475Z,102237.91
2023-03-02T06:37:02.424Z,102239.81
2023-03-02T06:39:30.190Z,102255.69
2023-03-02T06:41:56.774Z,102248.03
2023-03-02T06:44:23.387Z,102243.69
2023-03-02T06:46:49.965Z,102249.03
2023-03-02T06:49:16.554Z,102250.88
2023-03-02T06:51:43.207Z,102252.88
2023-03-02T06:54:09.850Z,102254.69
2023-03-02T06:56:36.435Z,102253.03
2023-03-02T06:59:03.079Z,102252.13
2023-03-02T07:01:35.773Z,102251.34
2023-03-02T07:04:03.231Z,102254.97
2023-03-02T07:06:29.854Z,102253.34
2023-03-02T07:08:56.405Z,102249.97
2023-03-02T07:11:23.034Z,102252.00
2023-03-02T07:13:49.815Z,102250.28
2023-03-02T07:16:16.423Z,102243.59
2023-03-02T07:18:43.140Z,102242.88
2023-03-02T07:21:09.719Z,102252.59
2023-03-02T07:23:36.309Z,102248.56
2023-03-02T07:26:02.909Z,102253.72
2023-03-02T07:28:29.510Z,102254.34
2023-03-02T07:30:56.126Z,102258.22
2023-03-02T07:33:22.770Z,102250.47
2023-03-02T07:35:49.368Z,102250.03
2023-03-02T07:38:16.008Z,102248.81
2023-03-02T07:40:43.216Z,102256.00
2023-03-02T07:43:10.160Z,102248.84
2023-03-02T07:45:37.605Z,102253.94
2023-03-02T07:48:04.241Z,102246.34
2023-03-02T07:50:31.267Z,102246.50
2023-03-02T07:52:59.891Z,102248.78
2023-03-02T07:55:26.593Z,102250.09
2023-03-02T07:57:53.246Z,102251.59
2023-03-02T08:00:20.620Z,102250.81
2023-03-02T08:02:47.208Z,102252.66
2023-03-02T08:05:14.129Z,102247.19
2023-03-02T08:07:41.027Z,102237.81
2023-03-02T08:10:07.820Z,102239.00
2023-03-02T08:12:34.384Z,102238.94
2023-03-02T08:15:03.092Z,102237.00
2023-03-02T08:17:30.211Z,102238.19
2023-03-02T08:19:56.752Z,102237.31
2023-03-02T08:22:23.546Z,102229.34
2023-03-02T08:24:50.184Z,102242.38
2023-03-02T08:27:17.750Z,102245.34
2023-03-02T08:29:44.304Z,102241.75
2023-03-02T08:32:10.996Z,102241.53
2023-03-02T08:34:37.654Z,102244.38
2023-03-02T08:37:04.309Z,102231.75
2023-03-02T08:39:32.189Z,102232.84
2023-03-02T08:41:59.061Z,102226.03
2023-03-02T08:44:25.722Z,102229.84
2023-03-02T08:46:52.283Z,102233.25
2023-03-02T08:49:19.535Z,102226.03
2023-03-02T08:51:46.772Z,102225.88
2023-03-02T08:54:13.457Z,102220.50
2023-03-02T08:56:40.397Z,102206.69
2023-03-02T08:59:09.886Z,102215.31
2023-03-02T09:01:37.976Z,102211.56
2023-03-02T09:04:07.253Z,102204.97
2023-03-02T09:06:36.739Z,102206.38
2023-03-02T09:09:04.270Z,102200.25
2023-03-02T09:11:31.097Z,102200.56
2023-03-02T09:13:57.909Z,102197.34
2023-03-02T09:16:26.096Z,102196.69
2023-03-02T09:18:53.920Z,102200.28
2023-03-02T09:21:20.880Z,102190.59
2023-03-02T09:23:47.485Z,102190.59
2023-03-02T09:26:14.152Z,102191.97
2023-03-02T09:28:40.799Z,102193.50
2023-03-02T09:31:08.526Z,102195.28
2023-03-02T09:33:35.529Z,102190.53
2023-03-02T09:36:07.176Z,102183.94
2023-03-02T09:38:33.788Z,102186.91
2023-03-02T09:41:19.985Z,102179.03
2023-03-02T09:44:01.359Z,102182.53
2023-03-02T09:46:39.692Z,102196.50
2023-03-02T09:49:37.136Z,102188.97
2023-03-02T09:52:13.998Z,102180.72
2023-03-02T09:54:40.903Z,102173.63
2023-03-02T09:57:27.193Z,102185.22
2023-03-02T10:00:18.053Z,102180.47
2023-03-02T10:02:51.721Z,102180.50
2023-03-02T10:05:31.868Z,102174.00
2023-03-02T10:07:59.497Z,102182.53
2023-03-02T10:11:03.248Z,102175.47
2023-03-02T10:13:34.763Z,102181.50
2023-03-02T10:16:12.425Z,102180.78
2023-03-02T10:18:47.181Z,102181.69
2023-03-02T10:21:49.649Z,102174.53
2023-03-02T10:25:02.950Z,102178.13
2023-03-02T10:27:42.449Z,102179.69
2023-03-02T10:30:31.127Z,102165.88
2023-03-02T10:33:01.258Z,102178.59
2023-03-02T10:35:29.107Z,102179.53
2023-03-02T10:38:00.342Z,102174.75
2023-03-02T10:40:46.086Z,102172.72
2023-03-02T10:43:34.188Z,102172.69
2023-03-02T10:46:03.123Z,102169.69
2023-03-02T10:48:29.736Z,102173.38
2023-03-02T10:50:58.569Z,102173.59
2023-03-02T10:53:25.414Z,102164.53
2023-03-02T10:55:53.309Z,102162.53
2023-03-02T10:58:31.975Z,102163.22
2023-03-02T11:01:07.379Z,102159.59
2023-03-02T11:03:34.285Z,102161.63
2023-03-02T11:06:17.467Z,102157.19
2023-03-02T11:08:44.130Z,102157.63
2023-03-02T11:11:37.734Z,102157.38
2023-03-02T11:14:16.291Z,102155.44
2023-03-02T11:16:43.621Z,102158.25
2023-03-02T11:19:16.502Z,102150.59
2023-03-02T11:21:56.476Z,102150.19
2023-03-02T11:25:01.697Z,102156.97
2023-03-02T11:27:31.232Z,102147.13
2023-03-02T11:30:12.057Z,102147.06
2023-03-02T11:32:50.004Z,102145.13
2023-03-02T11:35:22.846Z,102145.91
2023-03-02T11:37:55.253Z,102144.88
2023-03-02T11:40:32.184Z,102136.34
2023-03-02T11:43:00.459Z,102133.59
2023-03-02T11:45:31.673Z,102134.03
2023-03-02T11:48:04.176Z,102132.00
2023-03-02T11:50:33.150Z,102127.97
2023-03-02T11:53:01.991Z,102120.03
2023-03-02T11:55:34.153Z,102128.00
2023-03-02T11:58:03.423Z,102126.53
2023-03-02T12:00:42.205Z,102125.56
2023-03-02T12:03:14.725Z,102117.63
2023-03-02T12:05:45.887Z,102126.19
2023-03-02T12:08:15.542Z,102120.06
2023-03-02T12:10:44.332Z,102114.59
2023-03-02T12:13:17.861Z,102119.03
2023-03-02T12:15:50.864Z,102107.28
2023-03-02T12:18:23.514Z,102108.97
2023-03-02T12:21:16.051Z,102106.56
2023-03-02T12:23:45.525Z,102101.97
2023-03-02T12:26:21.248Z,102097.75
2023-03-02T12:29:10.888Z,102092.81
2023-03-02T12:31:46.251Z,102093.03
2023-03-02T12:34:33.797Z,102082.31
2023-03-02T12:37:11.881Z,102078.19
2023-03-02T12:40:03.448Z,102071.53
2023-03-02T12:43:07.258Z,102074.63
2023-03-02T12:45:46.374Z,102069.25
2023-03-02T12:48:25.281Z,102069.38
2023-03-02T12:50:52.851Z,102065.56
2023-03-02T12:53:20.010Z,102064.88
2023-03-02T12:55:46.950Z,102067.53
2023-03-02T12:58:33.649Z,102073.06
2023-03-02T13:01:02.296Z,102062.00
2023-03-02T13:03:30.976Z,102068.53
2023-03-02T13:06:03.468Z,102056.63
2023-03-02T13:08:31.589Z,102043.75
2023-03-02T13:11:00.866Z,102046.03
2023-03-02T13:13:41.595Z,102050.53
2023-03-02T13:16:28.809Z,102046.28
2023-03-02T13:18:58.270Z,102035.91
2023-03-02T13:21:32.767Z,102040.50
2023-03-02T13:23:59.641Z,102036.09
2023-03-02T13:26:37.127Z,102041.38
2023-03-02T13:29:14.716Z,102044.44
2023-03-02T13:31:41.387Z,102052.53
2023-03-02T13:34:20.786Z,102045.09
2023-03-02T13:36:47.364Z,102041.28
2023-03-02T13:39:22.527Z,102038.34
2023-03-02T13:41:54.425Z,102037.28
2023-03-02T13:44:26.282Z,102033.25
2023-03-02T13:46:52.909Z,102032.13
2023-03-02T13:49:30.506Z,102026.09
2023-03-02T13:52:02.303Z,102029.84
2023-03-02T13:54:31.181Z,102014.63
2023-03-02T13:56:59.262Z,102024.13
2023-03-02T13:59:26.054Z,102010.13
2023-03-02T14:01:52.678Z,102012.34
2023-03-02T14:04:24.033Z,102014.94
2023-03-02T14:06:52.129Z,102014.91
2023-03-02T14:09:19.232Z,102017.56
2023-03-02T14:11:48.276Z,102011.72
2023-03-02T14:14:17.894Z,101998.34
2023-03-02T14:16:44.565Z,101998.09
2023-03-02T14:19:13.933Z,101992.00
2023-03-02T14:21:41.202Z,102002.09
2023-03-02T14:24:07.794Z,101997.44
2023-03-02T14:26:45.219Z,101987.81
2023-03-02T14:29:31.607Z,101990.56
2023-03-02T14:32:00.706Z,101987.97
2023-03-02T14:34:27.682Z,101982.66
2023-03-02T14:36:58.625Z,101989.72
2023-03-02T14:39:36.441Z,101980.00
2023-03-02T14:42:04.175Z,101984.38
2023-03-02T14:44:30.794Z,101969.28
2023-03-02T14:46:58.284Z,101978.25
2023-03-02T14:49:25.416Z,101977.28
2023-03-02T14:51:59.336Z,101972.91
2023-03-02T14:54:26.447Z,101974.69
2023-03-02T14:56:53.134Z,101970.25
2023-03-02T14:59:19.733Z,101967.59
2023-03-02T15:01:46.487Z,101965.81
2023-03-02T15:04:13.216Z,101977.34
2023-03-02T15:06:41.058Z,101969.38
2023-03-02T15:09:08.533Z,101967.63
2023-03-02T15:11:35.516Z,101966.69
2023-03-02T15:14:02.408Z,101972.03
2023-03-02T15:16:29.062Z,101982.66
2023-03-02T15:18:57.751Z,101975.56
2023-03-02T15:21:25.216Z,101965.88
2023-03-02T15:23:52.006Z,101968.50
2023-03-02T15:26:18.659Z,101977.34
2023-03-02T15:28:48.086Z,101987.94
2023-03-02T15:31:16.352Z,101983.53
2023-03-02T15:33:45.246Z,101975.56
2023-03-02T15:36:12.781Z,101978.19
2023-03-02T15:38:39.729Z,101967.50
2023-03-02T15:41:13.163Z,101969.91
2023-03-02T15:43:40.069Z,101970.06
2023-03-02T15:46:06.731Z,101965.50
2023-03-02T15:48:33.278Z,101970.03
2023-03-02T15:51:04.837Z,101967.38
2023-03-02T15:53:34.658Z,101967.38
2023-03-02T15:56:10.879Z,101970.03
2023-03-02T15:58:37.469Z,101962.00
2023-03-02T16:01:08.479Z,101969.91
2023-03-02T16:03:35.189Z,101954.91
2023-03-02T16:06:02.023Z,101957.56
2023-03-02T16:08:28.627Z,101958.38
2023-03-02T16:10:59.744Z,101956.63
2023-03-02T16:13:26.957Z,101960.09
2023-03-02T16:15:53.857Z,101960.97
2023-03-02T16:18:20.430Z,101958.88
2023-03-02T16:20:47.023Z,101956.72
2023-03-02T16:23:13.733Z,101956.59
2023-03-02T16:25:43.526Z,101965.31
2023-03-02T16:28:11.661Z,101957.66
2023-03-02T16:30:39.525Z,101960.63
2023-03-02T16:33:07.967Z,101963.06
2023-03-02T16:35:35.275Z,101968.38
2023-03-02T16:38:02.162Z,101965.53
2023-03-02T16:40:29.387Z,101969.94
2023-03-02T16:42:55.949Z,101960.84
2023-03-02T16:45:22.687Z,101963.94
2023-03-02T16:47:49.827Z,101970.06
2023-03-02T16:50:17.100Z,101971.81
2023-03-02T16:52:44.271Z,101970.84
2023-03-02T16:55:17.292Z,101974.09
2023-03-02T16:57:43.862Z,101976.97
2023-03-02T17:00:13.363Z,101973.53
2023-03-02T17:02:40.051Z,101980.53
2023-03-02T17:05:06.854Z,101979.75
2023-03-02T17:07:33.415Z,101992.38
2023-03-02T17:09:59.976Z,101987.34
2023-03-02T17:12:26.573Z,101997.13
2023-03-02T17:14:53.141Z,101987.66
2023-03-02T17:17:19.793Z,101992.16
2023-03-02T17:19:46.336Z,101998.94
2023-03-02T17:22:12.996Z,102001.13
2023-03-02T17:24:39.655Z,102004.91
2023-03-02T17:27:15.901Z,102004.22
2023-03-02T17:29:49.275Z,102008.59
2023-03-02T17:32:15.925Z,102011.94
2023-03-02T17:34:43.385Z,102007.03
2023-03-02T17:37:09.977Z,102011.94
2023-03-02T17:39:36.627Z,102011.03
2023-03-02T17:42:03.290Z,102015.69
2023-03-02T17:44:29.858Z,102011.78
2023-03-02T17:46:56.536Z,102013.53
2023-03-02T17:49:23.094Z,102009.22
2023-03-02T17:51:49.828Z,102009.97
2023-03-02T17:54:16.389Z,102010.31
2023-03-02T17:56:42.994Z,102007.25
2023-03-02T17:59:10.456Z,102018.34
2023-03-02T18:01:37.032Z,102013.25
2023-03-02T18:04:03.761Z,102025.69
2023-03-02T18:06:30.345Z,102025.53
2023-03-02T18:08:57.010Z,102023.44
2023-03-02T18:11:24.756Z,102023.69
2023-03-02T18:13:54.883Z,102022.44
2023-03-02T18:16:23.093Z,102023.84
2023-03-02T18:18:53.479Z,102020.84
2023-03-02T18:21:21.121Z,102028.97
2023-03-02T18:23:47.754Z,102030.00
2023-03-02T18:26:14.977Z,102026.38
2023-03-02T18:28:41.691Z,102024.78
2023-03-02T18:31:08.740Z,102028.38
2023-03-02T18:33:37.450Z,102038.94
2023-03-02T18:36:05.599Z,102025.75
2023-03-02T18:38:33.650Z,102027.63
2023-03-02T18:41:03.023Z,102034.69
2023-03-02T18:43:34.783Z,102033.38
2023-03-02T18:46:05.355Z,102033.19
2023-03-02T18:48:32.571Z,102034.03
2023-03-02T18:50:59.402Z,102035.66
2023-03-02T18:53:27.023Z,102028.72
2023-03-02T18:55:56.698Z,102039.72
2023-03-02T18:58:25.367Z,102032.25
2023-03-02T19:00:53.710Z,102032.22
2023-03-02T19:03:20.988Z,102036.78
2023-03-02T19:05:47.587Z,102031.00
2023-03-02T19:08:14.232Z,102036.09
2023-03-02T19:10:42.417Z,102027.81
2023-03-02T19:13:11.629Z,102025.78
2023-03-02T19:15:41.537Z,102027.78
2023-03-02T19:18:08.402Z,102030.34
2023-03-02T19:20:35.296Z,102029.69
2023-03-02T19:23:01.955Z,102040.97
2023-03-02T19:25:28.685Z,102032.34
2023-03-02T19:27:55.261Z,102036.44
2023-03-02T19:30:24.645Z,102034.84
2023-03-02T19:32:54.037Z,102041.13
2023-03-02T19:35:22.814Z,102033.22
2023-03-02T19:37:49.850Z,102034.06
2023-03-02T19:40:19.220Z,102040.13
2023-03-02T19:42:47.487Z,102036.38
2023-03-02T19:45:23.576Z,102031.22
2023-03-02T19:47:50.125Z,102033.03
2023-03-02T19:50:19.005Z,102033.94
2023-03-02T19:52:45.615Z,102040.91
2023-03-02T19:55:14.100Z,102042.72
2023-03-02T19:57:40.898Z,102044.28
2023-03-02T20:00:13.301Z,102046.00
2023-03-02T20:02:40.847Z,102040.16
2023-03-02T20:05:11.073Z,102037.16
2023-03-02T20:10:35.950Z,102043.53
2023-03-02T20:13:03.554Z,102045.81
2023-03-02T20:15:32.049Z,102041.44
2023-03-02T20:17:59.528Z,102038.19
2023-03-02T20:20:27.169Z,102040.59
2023-03-02T20:22:54.789Z,102053.84
2023-03-02T20:25:21.770Z,102053.03
2023-03-02T20:27:49.385Z,102054.94
2023-03-02T20:30:39.411Z,102056.44
2023-03-02T20:33:07.245Z,102055.97
2023-03-02T20:35:35.106Z,102054.34
2023-03-02T20:38:05.497Z,102050.75
2023-03-02T20:40:32.483Z,102060.00
2023-03-02T20:42:59.168Z,102054.59
2023-03-02T20:45:25.787Z,102058.59
2023-03-02T20:51:37.181Z,102062.09
2023-03-02T20:54:04.358Z,102068.38
2023-03-02T20:56:30.999Z,102057.44
2023-03-02T20:58:58.012Z,102060.38
2023-03-02T21:01:24.979Z,102056.38
2023-03-02T21:03:51.721Z,102056.47
2023-03-02T21:06:18.978Z,102059.41
2023-03-02T21:08:46.124Z,102061.00
2023-03-02T21:11:15.813Z,102056.31
2023-03-02T21:13:45.889Z,102063.75
2023-03-02T21:16:17.128Z,102058.97
2023-03-02T21:18:57.992Z,102058.50
2023-03-02T21:21:40.392Z,102074.00
2023-03-02T21:24:09.208Z,102061.63
2023-03-02T21:26:36.677Z,102057.50
2023-03-02T21:29:05.290Z,102056.13
2023-03-02T21:31:31.991Z,102060.75
2023-03-02T21:34:00.203Z,102060.16
2023-03-02T21:36:27.139Z,102059.31
2023-03-02T21:38:53.874Z,102053.69
2023-03-02T21:41:20.499Z,102063.72
2023-03-02T21:43:47.829Z,102045.72
2023-03-02T21:46:16.750Z,102061.78
2023-03-02T21:48:43.898Z,102070.31
2023-03-02T21:51:11.866Z,102061.97
2023-03-02T21:53:38.423Z,102064.13
2023-03-02T21:56:05.681Z,102062.72
2023-03-02T21:58:32.373Z,102052.31
2023-03-02T22:00:59.094Z,102061.13
2023-03-02T22:03:25.864Z,102050.53
2023-03-02T22:05:52.464Z,102054.56
2023-03-02T22:08:20.469Z,102055.03
2023-03-02T22:10:51.136Z,102052.59
2023-03-02T22:13:26.818Z,102048.44
2023-03-02T22:16:15.511Z,102044.72
2023-03-02T22:18:44.661Z,102036.97
2023-03-02T22:21:28.656Z,102042.13
2023-03-02T22:24:09.885Z,102037.72
2023-03-02T22:26:40.719Z,102034.91
2023-03-02T22:29:21.469Z,102042.03
2023-03-02T22:31:49.582Z,102040.84
2023-03-02T22:34:24.261Z,102051.44
2023-03-02T22:36:50.918Z,102037.00
2023-03-02T22:39:29.400Z,102039.03
2023-03-02T22:42:08.731Z,102021.03
2023-03-02T22:44:37.329Z,102012.84
2023-03-02T22:47:20.346Z,102022.03
2023-03-02T22:49:56.132Z,102017.66
2023-03-02T22:52:26.071Z,102007.72
2023-03-02T22:54:55.183Z,101995.53
2023-03-02T22:57:33.486Z,102016.44
2023-03-02T23:00:32.663Z,102007.75
2023-03-02T23:03:01.364Z,101988.81
2023-03-02T23:05:33.930Z,102018.31
2023-03-02T23:08:19.722Z,102009.66
2023-03-02T23:10:49.283Z,102002.44
2023-03-02T23:13:20.119Z,102008.84
2023-03-02T23:15:48.985Z,102011.53
2023-03-02T23:18:29.053Z,102001.63
2023-03-02T23:20:58.409Z,101985.47
2023-03-02T23:23:28.895Z,101996.75
2023-03-02T23:25:59.079Z,101987.41
2023-03-02T23:28:26.154Z,101973.47
2023-03-02T23:30:54.674Z,101987.28
2023-03-02T23:33:24.040Z,101962.59
2023-03-02T23:35:53.753Z,101981.97
2023-03-02T23:38:22.978Z,101946.28
2023-03-02T23:40:52.323Z,101953.47
2023-03-02T23:43:21.893Z,101967.88
2023-03-02T23:45:51.549Z,101950.66
2023-03-02T23:48:20.980Z,101965.13
2023-03-02T23:50:52.166Z,101978.19
2023-03-02T23:53:22.596Z,101979.66
2023-03-02T23:55:53.382Z,101985.28
2023-03-02T23:58:25.152Z,101993.41
